createdAt,value
2019-05-17T00:00:52.794Z,10.70
2019-05-17T00:03:57.805Z,10.60
2019-05-17T00:07:02.930Z,10.60
2019-05-17T00:10:08.100Z,10.50
2019-05-17T00:13:14.635Z,10.50
2019-05-17T00:16:19.869Z,10.40
2019-05-17T00:19:26.318Z,10.40
2019-05-17T00:22:31.405Z,10.30
2019-05-17T00:25:37.042Z,10.20
2019-05-17T00:28:42.321Z,10.20
2019-05-17T00:31:47.431Z,10.20
2019-05-17T00:34:52.442Z,10.30
2019-05-17T00:37:57.459Z,10.30
2019-05-17T00:41:02.471Z,10.30
2019-05-17T00:44:07.558Z,10.20
2019-05-17T00:47:12.599Z,10.10
2019-05-17T00:50:18.527Z,10.10
2019-05-17T00:53:23.500Z,10.10
2019-05-17T00:56:28.580Z,10.20
2019-05-17T00:59:33.531Z,10.20
2019-05-17T01:02:38.634Z,10.20
2019-05-17T01:05:43.662Z,10.10
2019-05-17T01:09:00.542Z,10.10
2019-05-17T01:11:56.691Z,10.10
2019-05-17T01:15:01.734Z,10.10
2019-05-17T01:18:07.374Z,10.10
2019-05-17T01:21:13.159Z,10.00
2019-05-17T01:24:18.202Z,10.00
2019-05-17T01:27:23.300Z,10.00
2019-05-17T01:30:28.331Z,9.90
2019-05-17T01:33:33.359Z,9.90
2019-05-17T01:36:38.438Z,9.90
2019-05-17T01:39:43.459Z,9.90
2019-05-17T01:42:48.392Z,9.90
2019-05-17T01:45:53.335Z,9.90
2019-05-17T01:48:58.358Z,9.90
2019-05-17T01:52:03.318Z,9.90
2019-05-17T01:55:08.939Z,9.90
2019-05-17T01:58:16.253Z,9.90
2019-05-17T02:01:20.659Z,9.90
2019-05-17T02:04:26.788Z,9.80
2019-05-17T02:07:31.904Z,9.80
2019-05-17T02:10:37.678Z,9.70
2019-05-17T02:13:42.942Z,9.60
2019-05-17T02:16:47.886Z,9.60
2019-05-17T02:19:52.915Z,9.50
2019-05-17T02:22:57.919Z,9.50
2019-05-17T02:26:03.014Z,9.40
2019-05-17T02:29:08.113Z,9.40
2019-05-17T02:32:13.301Z,9.40
2019-05-17T02:35:18.598Z,9.40
2019-05-17T02:38:23.681Z,9.30
2019-05-17T02:41:28.713Z,9.30
2019-05-17T02:44:33.830Z,9.30
2019-05-17T02:47:38.845Z,9.30
2019-05-17T02:50:47.396Z,9.20
2019-05-17T02:53:52.678Z,9.20
2019-05-17T02:56:57.843Z,9.20
2019-05-17T03:00:04.329Z,9.20
2019-05-17T03:03:13.456Z,9.20
2019-05-17T03:06:17.562Z,9.10
2019-05-17T03:09:22.967Z,9.20
2019-05-17T03:12:28.086Z,9.20
2019-05-17T03:15:33.274Z,9.20
2019-05-17T03:18:38.262Z,9.20
2019-05-17T03:21:43.319Z,9.30
2019-05-17T03:24:48.478Z,9.30
2019-05-17T03:27:53.796Z,9.30
2019-05-17T03:30:58.980Z,9.30
2019-05-17T03:34:06.605Z,9.30
2019-05-17T03:37:16.078Z,9.30
2019-05-17T03:40:58.535Z,9.40
2019-05-17T03:43:24.664Z,9.40
2019-05-17T03:46:33.181Z,9.40
2019-05-17T03:49:39.302Z,9.40
2019-05-17T03:52:45.082Z,9.40
2019-05-17T03:55:53.727Z,9.40
2019-05-17T03:58:56.931Z,9.30
2019-05-17T04:02:03.257Z,9.30
2019-05-17T04:05:08.731Z,9.30
2019-05-17T04:08:14.129Z,9.30
2019-05-17T04:11:27.938Z,9.30
2019-05-17T04:14:26.010Z,9.40
2019-05-17T04:17:32.840Z,9.40
2019-05-17T04:20:37.677Z,9.50
2019-05-17T04:23:43.046Z,9.50
2019-05-17T04:26:48.356Z,9.60
2019-05-17T04:29:53.588Z,9.60
2019-05-17T04:32:58.817Z,9.70
2019-05-17T04:36:03.933Z,9.70
2019-05-17T04:39:13.100Z,9.60
2019-05-17T04:42:16.643Z,9.50
2019-05-17T04:45:23.189Z,9.50
2019-05-17T04:48:28.507Z,9.50
2019-05-17T04:51:33.539Z,9.50
2019-05-17T04:54:38.631Z,9.60
2019-05-17T04:57:44.228Z,9.60
2019-05-17T05:00:49.622Z,9.70
2019-05-17T05:03:54.694Z,9.70
2019-05-17T05:07:19.018Z,9.80
2019-05-17T05:10:26.973Z,9.90
2019-05-17T05:13:33.261Z,9.90
2019-05-17T05:16:38.679Z,9.90
2019-05-17T05:19:43.624Z,9.90
2019-05-17T05:22:48.567Z,9.90
2019-05-17T05:25:53.598Z,10.10
2019-05-17T05:28:58.523Z,10.30
2019-05-17T05:32:12.024Z,10.40
2019-05-17T05:35:17.077Z,10.60
2019-05-17T05:38:22.028Z,10.70
2019-05-17T05:41:27.050Z,10.80
2019-05-17T05:44:32.116Z,10.80
2019-05-17T05:47:37.211Z,10.90
2019-05-17T05:50:43.318Z,11.10
2019-05-17T05:53:48.475Z,11.30
2019-05-17T05:56:53.413Z,11.40
2019-05-17T05:59:58.507Z,11.50
2019-05-17T06:03:04.282Z,11.60
2019-05-17T06:06:09.416Z,11.60
2019-05-17T06:09:14.498Z,11.50
2019-05-17T06:12:24.766Z,11.50
2019-05-17T06:15:26.366Z,11.40
2019-05-17T06:18:31.913Z,11.20
2019-05-17T06:21:37.070Z,11.10
2019-05-17T06:24:42.600Z,11.00
2019-05-17T06:27:47.641Z,11.00
2019-05-17T06:30:52.574Z,11.00
2019-05-17T06:33:57.547Z,11.10
2019-05-17T06:37:02.565Z,11.20
2019-05-17T06:40:07.849Z,11.20
2019-05-17T06:43:13.333Z,11.30
2019-05-17T06:46:18.920Z,11.40
2019-05-17T06:49:24.243Z,11.60
2019-05-17T06:52:29.202Z,11.80
2019-05-17T06:55:34.209Z,11.90
2019-05-17T06:58:39.162Z,11.90
2019-05-17T07:01:44.166Z,12.00
2019-05-17T07:04:50.822Z,12.10
2019-05-17T07:07:55.947Z,12.00
2019-05-17T07:11:01.019Z,12.10
2019-05-17T07:14:06.198Z,12.20
2019-05-17T07:17:11.213Z,12.40
2019-05-17T07:20:16.594Z,12.50
2019-05-17T07:23:21.538Z,12.60
2019-05-17T07:26:26.578Z,12.70
2019-05-17T07:29:31.578Z,12.80
2019-05-17T07:32:36.681Z,12.90
2019-05-17T07:35:41.789Z,13.00
2019-05-17T07:38:46.819Z,13.30
2019-05-17T07:41:51.854Z,13.40
2019-05-17T07:44:56.856Z,13.60
2019-05-17T07:48:01.826Z,13.70
2019-05-17T07:51:06.990Z,13.80
2019-05-17T07:54:12.085Z,13.90
2019-05-17T07:57:17.051Z,14.10
2019-05-17T08:00:22.208Z,14.10
2019-05-17T08:03:29.725Z,14.10
2019-05-17T08:06:33.948Z,14.00
2019-05-17T08:09:40.417Z,14.10
2019-05-17T08:12:45.581Z,14.20
2019-05-17T08:15:50.598Z,14.30
2019-05-17T08:18:55.546Z,14.30
2019-05-17T08:22:00.515Z,14.30
2019-05-17T08:25:05.613Z,14.40
2019-05-17T08:28:11.168Z,14.60
2019-05-17T08:31:16.425Z,14.80
2019-05-17T08:34:21.495Z,14.90
2019-05-17T08:37:26.442Z,14.90
2019-05-17T08:40:31.363Z,15.10
2019-05-17T08:43:44.425Z,15.30
2019-05-17T08:46:43.092Z,15.40
2019-05-17T08:49:49.702Z,15.60
2019-05-17T08:52:54.807Z,15.70
2019-05-17T08:56:01.010Z,15.90
2019-05-17T08:59:06.312Z,16.00
2019-05-17T09:02:11.302Z,15.80
2019-05-17T09:05:16.512Z,15.90
2019-05-17T09:08:22.014Z,15.90
2019-05-17T09:11:27.030Z,16.00
2019-05-17T09:14:32.122Z,16.10
2019-05-17T09:17:39.360Z,16.10
2019-05-17T09:20:43.835Z,16.10
2019-05-17T09:23:50.346Z,16.10
2019-05-17T09:26:55.506Z,16.10
2019-05-17T09:30:00.449Z,16.20
2019-05-17T09:33:05.530Z,16.40
2019-05-17T09:36:10.554Z,16.40
2019-05-17T09:39:16.538Z,16.40
2019-05-17T09:42:21.471Z,16.40
2019-05-17T09:45:26.558Z,16.40
2019-05-17T09:48:31.566Z,16.40
2019-05-17T09:51:36.511Z,16.50
2019-05-17T09:54:45.295Z,16.70
2019-05-17T09:57:49.693Z,16.80
2019-05-17T10:00:54.869Z,16.80
2019-05-17T10:04:00.018Z,16.70
2019-05-17T10:07:05.328Z,16.60
2019-05-17T10:10:10.862Z,16.50
2019-05-17T10:13:15.991Z,16.50
2019-05-17T10:16:20.992Z,16.70
2019-05-17T10:19:26.024Z,17.00
2019-05-17T10:22:31.087Z,17.10
2019-05-17T10:25:36.668Z,17.10
2019-05-17T10:28:41.598Z,17.10
2019-05-17T10:31:50.323Z,16.90
2019-05-17T10:34:54.861Z,17.00
2019-05-17T10:38:00.089Z,17.00
2019-05-17T10:41:05.355Z,17.00
2019-05-17T10:44:10.299Z,17.20
2019-05-17T10:47:15.387Z,17.50
2019-05-17T10:50:20.739Z,17.80
2019-05-17T10:53:25.948Z,17.80
2019-05-17T10:56:30.967Z,17.80
2019-05-17T10:59:35.976Z,17.60
2019-05-17T11:02:41.459Z,17.50
2019-05-17T11:05:46.474Z,17.50
2019-05-17T11:08:51.486Z,17.60
2019-05-17T11:11:56.539Z,17.70
2019-05-17T11:15:10.858Z,17.90
2019-05-17T11:18:08.666Z,17.90
2019-05-17T11:21:13.759Z,18.00
2019-05-17T11:24:18.765Z,17.90
2019-05-17T11:27:23.788Z,18.00
2019-05-17T11:30:28.726Z,18.20
2019-05-17T11:33:33.826Z,18.30
2019-05-17T11:36:38.827Z,18.40
2019-05-17T11:39:43.849Z,18.40
2019-05-17T11:42:48.936Z,18.50
2019-05-17T11:45:53.955Z,18.50
2019-05-17T11:48:58.890Z,18.50
2019-05-17T11:52:03.980Z,18.50
2019-05-17T11:55:09.280Z,18.50
2019-05-17T11:58:14.285Z,18.90
2019-05-17T12:01:19.427Z,19.00
2019-05-17T12:04:24.375Z,19.00
2019-05-17T12:07:29.477Z,18.90
2019-05-17T12:10:34.560Z,18.90
2019-05-17T12:13:43.222Z,18.90
2019-05-17T12:16:46.316Z,18.80
2019-05-17T12:19:51.398Z,18.70
2019-05-17T12:22:56.439Z,18.90
2019-05-17T12:26:01.434Z,19.00
2019-05-17T12:29:06.533Z,19.10
2019-05-17T12:32:16.545Z,19.00
2019-05-17T12:35:18.343Z,19.00
2019-05-17T12:38:23.445Z,18.90
2019-05-17T12:41:28.459Z,18.90
2019-05-17T12:44:36.914Z,19.00
2019-05-17T12:47:40.153Z,19.00
2019-05-17T12:50:45.234Z,18.90
2019-05-17T12:53:50.284Z,18.80
2019-05-17T12:56:55.379Z,18.90
2019-05-17T13:00:00.322Z,18.90
2019-05-17T13:03:05.360Z,18.80
2019-05-17T13:06:10.389Z,19.00
2019-05-17T13:09:15.331Z,19.20
2019-05-17T13:12:20.419Z,19.30
2019-05-17T13:15:25.460Z,19.50
2019-05-17T13:18:30.558Z,19.50
2019-05-17T13:21:35.590Z,19.60
2019-05-17T13:24:40.540Z,19.80
2019-05-17T13:27:45.471Z,19.90
2019-05-17T13:30:50.483Z,20.00
2019-05-17T13:33:55.431Z,20.10
2019-05-17T13:37:00.473Z,20.20
2019-05-17T13:40:05.636Z,20.40
2019-05-17T13:43:10.622Z,20.50
2019-05-17T13:46:15.787Z,20.50
2019-05-17T13:49:20.834Z,20.70
2019-05-17T13:52:25.838Z,20.80
2019-05-17T13:55:30.779Z,21.00
2019-05-17T13:58:35.825Z,21.20
2019-05-17T14:01:40.737Z,21.20
2019-05-17T14:04:45.759Z,21.20
2019-05-17T14:07:50.768Z,21.20
2019-05-17T14:10:55.838Z,21.50
2019-05-17T14:14:00.765Z,21.80
2019-05-17T14:17:05.860Z,22.10
2019-05-17T14:20:10.949Z,22.20
2019-05-17T14:23:15.977Z,22.20
2019-05-17T14:26:21.054Z,22.30
2019-05-17T14:29:26.189Z,22.30
2019-05-17T14:32:31.314Z,22.30
2019-05-17T14:35:36.327Z,22.40
2019-05-17T14:38:41.267Z,22.00
2019-05-17T14:41:46.206Z,21.50
2019-05-17T14:44:51.220Z,21.40
2019-05-17T14:47:56.158Z,21.60
2019-05-17T14:51:01.162Z,22.00
2019-05-17T14:54:06.230Z,22.10
2019-05-17T14:57:11.366Z,22.20
2019-05-17T15:00:17.858Z,22.30
2019-05-17T15:03:22.951Z,22.60
2019-05-17T15:06:27.868Z,23.10
2019-05-17T15:09:32.984Z,23.50
2019-05-17T15:12:38.004Z,23.80
2019-05-17T15:15:43.158Z,23.70
2019-05-17T15:18:48.178Z,23.20
2019-05-17T15:21:53.265Z,22.60
2019-05-17T15:24:58.290Z,22.10
2019-05-17T15:28:03.318Z,21.60
2019-05-17T15:31:08.313Z,21.40
2019-05-17T15:34:13.409Z,21.30
2019-05-17T15:37:18.494Z,21.40
2019-05-17T15:40:23.515Z,21.80
2019-05-17T15:43:28.520Z,22.20
2019-05-17T15:46:33.538Z,22.50
2019-05-17T15:49:38.486Z,22.60
2019-05-17T15:52:43.463Z,22.60
2019-05-17T15:55:48.437Z,22.60
2019-05-17T15:58:53.509Z,22.50
2019-05-17T16:01:58.542Z,22.50
2019-05-17T16:05:03.941Z,22.70
2019-05-17T16:08:08.918Z,22.90
2019-05-17T16:11:13.960Z,22.90
2019-05-17T16:14:18.973Z,22.60
2019-05-17T16:17:24.013Z,22.50
2019-05-17T16:20:28.935Z,22.70
2019-05-17T16:23:34.050Z,22.60
2019-05-17T16:26:39.087Z,22.40
2019-05-17T16:29:44.164Z,22.20
2019-05-17T16:32:49.172Z,21.90
2019-05-17T16:35:54.121Z,21.70
2019-05-17T16:38:59.164Z,21.40
2019-05-17T16:42:04.235Z,21.20
2019-05-17T16:45:09.629Z,20.90
2019-05-17T16:48:14.652Z,20.60
2019-05-17T16:51:19.740Z,20.40
2019-05-17T16:54:24.769Z,20.30
2019-05-17T16:57:29.770Z,20.30
2019-05-17T17:00:37.930Z,20.20
2019-05-17T17:03:44.569Z,20.00
2019-05-17T17:06:49.743Z,19.90
2019-05-17T17:09:54.818Z,19.80
2019-05-17T17:12:59.906Z,19.70
2019-05-17T17:16:05.337Z,19.60
2019-05-17T17:19:10.343Z,19.60
2019-05-17T17:22:15.419Z,19.50
2019-05-17T17:25:20.491Z,19.40
2019-05-17T17:28:25.702Z,19.30
2019-05-17T17:31:30.865Z,19.20
2019-05-17T17:34:35.807Z,19.10
2019-05-17T17:37:40.837Z,19.10
2019-05-17T17:40:45.938Z,19.00
2019-05-17T17:43:58.536Z,19.00
2019-05-17T17:46:57.579Z,18.90
2019-05-17T17:50:02.805Z,18.90
2019-05-17T17:53:08.222Z,18.80
2019-05-17T17:56:13.811Z,18.70
2019-05-17T17:59:19.006Z,18.70
2019-05-17T18:02:24.287Z,18.60
2019-05-17T18:05:29.305Z,18.50
2019-05-17T18:08:34.829Z,18.50
2019-05-17T18:11:39.992Z,18.40
2019-05-17T18:14:45.019Z,18.30
2019-05-17T18:17:49.966Z,18.30
2019-05-17T18:20:54.982Z,18.20
2019-05-17T18:24:00.002Z,18.10
2019-05-17T18:27:05.090Z,18.10
2019-05-17T18:30:10.275Z,18.00
2019-05-17T18:33:15.357Z,18.00
2019-05-17T18:36:20.460Z,17.90
2019-05-17T18:39:25.557Z,17.80
2019-05-17T18:42:30.755Z,17.80
2019-05-17T18:45:35.859Z,17.70
2019-05-17T18:48:41.000Z,17.70
2019-05-17T18:51:46.068Z,17.60
2019-05-17T18:54:51.459Z,17.50
2019-05-17T18:57:56.551Z,17.50
2019-05-17T19:01:02.096Z,17.40
2019-05-17T19:04:07.668Z,17.30
2019-05-17T19:07:12.682Z,17.30
2019-05-17T19:10:17.713Z,17.20
2019-05-17T19:13:22.716Z,17.10
2019-05-17T19:16:27.658Z,17.10
2019-05-17T19:19:32.770Z,17.00
2019-05-17T19:22:37.795Z,16.90
2019-05-17T19:25:42.846Z,16.90
2019-05-17T19:28:47.919Z,16.80
2019-05-17T19:31:52.948Z,16.80
2019-05-17T19:34:58.274Z,16.70
2019-05-17T19:38:03.360Z,16.70
2019-05-17T19:41:08.519Z,16.60
2019-05-17T19:44:13.521Z,16.50
2019-05-17T19:47:18.520Z,16.50
2019-05-17T19:50:23.646Z,16.40
2019-05-17T19:53:28.670Z,16.40
2019-05-17T19:56:33.878Z,16.30
2019-05-17T19:59:38.912Z,16.30
2019-05-17T20:02:43.925Z,16.20
2019-05-17T20:05:49.245Z,16.10
2019-05-17T20:08:54.558Z,16.10
2019-05-17T20:11:59.648Z,16.00
2019-05-17T20:15:16.918Z,15.90
2019-05-17T20:18:11.945Z,15.90
2019-05-17T20:21:17.228Z,15.80
2019-05-17T20:24:22.294Z,15.80
2019-05-17T20:27:27.640Z,15.70
2019-05-17T20:30:32.813Z,15.70
2019-05-17T20:33:37.862Z,15.60
2019-05-17T20:36:42.811Z,15.60
2019-05-17T20:39:47.831Z,15.50
2019-05-17T20:42:52.769Z,15.50
2019-05-17T20:45:57.724Z,15.50
2019-05-17T20:49:02.758Z,15.40
2019-05-17T20:52:07.835Z,15.30
2019-05-17T20:55:13.232Z,15.30
2019-05-17T20:58:18.267Z,15.20
2019-05-17T21:01:23.274Z,15.20
2019-05-17T21:04:28.242Z,15.20
2019-05-17T21:07:33.237Z,15.10
2019-05-17T21:10:38.192Z,15.10
2019-05-17T21:13:43.199Z,15.10
2019-05-17T21:16:48.131Z,15.10
2019-05-17T21:19:53.061Z,15.00
2019-05-17T21:22:58.214Z,15.00
2019-05-17T21:26:03.235Z,15.00
2019-05-17T21:29:08.437Z,14.90
2019-05-17T21:32:13.461Z,14.90
2019-05-17T21:35:18.403Z,14.80
2019-05-17T21:38:23.409Z,14.80
2019-05-17T21:41:28.400Z,14.80
2019-05-17T21:44:33.347Z,14.80
2019-05-17T21:47:38.473Z,14.70
2019-05-17T21:50:43.486Z,14.70
2019-05-17T21:53:48.724Z,14.70
2019-05-17T21:56:53.806Z,14.70
2019-05-17T21:59:58.833Z,14.70
2019-05-17T22:03:03.981Z,14.70
2019-05-17T22:06:09.394Z,14.60
2019-05-17T22:09:14.499Z,14.60
2019-05-17T22:12:19.656Z,14.60
2019-05-17T22:15:24.666Z,14.60
2019-05-17T22:18:29.703Z,14.60
2019-05-17T22:21:34.719Z,14.50
2019-05-17T22:24:39.826Z,14.50
2019-05-17T22:27:44.755Z,14.50
2019-05-17T22:30:49.721Z,14.40
2019-05-17T22:33:55.515Z,14.40
2019-05-17T22:37:00.518Z,14.30
2019-05-17T22:40:05.978Z,14.30
2019-05-17T22:43:10.967Z,14.20
2019-05-17T22:46:15.913Z,14.20
2019-05-17T22:49:20.919Z,14.20
2019-05-17T22:52:25.861Z,14.10
2019-05-17T22:55:30.793Z,14.10
2019-05-17T22:58:35.816Z,14.10
2019-05-17T23:01:40.838Z,14.10
2019-05-17T23:04:45.902Z,14.00
2019-05-17T23:07:50.992Z,14.00
2019-05-17T23:10:55.931Z,14.00
2019-05-17T23:14:00.860Z,14.00
2019-05-17T23:17:05.886Z,13.90
2019-05-17T23:20:10.967Z,13.90
2019-05-17T23:23:15.906Z,13.90
2019-05-17T23:26:20.846Z,13.90
2019-05-17T23:29:25.779Z,13.90
2019-05-17T23:32:30.809Z,13.80
2019-05-17T23:35:35.824Z,13.80
2019-05-17T23:38:40.819Z,13.80
2019-05-17T23:41:45.761Z,13.70
2019-05-17T23:44:50.690Z,13.70
2019-05-17T23:47:55.622Z,13.70
2019-05-17T23:51:00.551Z,13.60
2019-05-17T23:54:05.619Z,13.50
2019-05-17T23:57:10.687Z,13.40
